Time;durP1;ratioP1;P1;durP2;ratioP2;P2;SDS_P1;SDS_P2;PMS_P1;PMS_P2;Temp;Humidity;BMP_temperature;BMP_pressure;BME280_temperature;BME280_humidity;BME280_pressure;Samples;Min_cycle;Max_cycle;Signal;HPM_P1;HPM_P2
2023/09/26 00:00:56;;;;;;;3.03;1.70;;;;;;;23.19;49.23;99651.75;5093293;28;20361;-77
2023/09/26 00:03:21;;;;;;;2.85;1.60;;;;;;;23.21;48.93;99663.16;5094606;28;20040;-79
2023/09/26 00:05:48;;;;;;;3.08;1.63;;;;;;;23.18;48.90;99658.03;5094347;28;20036;-79
2023/09/26 00:08:16;;;;;;;3.67;1.63;;;;;;;23.22;48.91;99666.66;5094507;28;20027;-80
2023/09/26 00:10:41;;;;;;;2.67;1.40;;;;;;;23.19;48.76;99657.06;5094739;28;20028;-78
2023/09/26 00:13:07;;;;;;;3.58;1.73;;;;;;;23.16;48.72;99657.28;5094565;28;20084;-77
2023/09/26 00:15:33;;;;;;;3.40;1.80;;;;;;;23.16;48.64;99662.63;5094498;28;20089;-78
2023/09/26 00:17:58;;;;;;;4.35;1.83;;;;;;;23.16;48.53;99657.28;5094464;28;20035;-78
2023/09/26 00:20:26;;;;;;;4.05;1.52;;;;;;;23.15;48.33;99658.25;5094570;28;20027;-78
2023/09/26 00:22:51;;;;;;;3.10;1.70;;;;;;;23.12;48.48;99661.97;5094256;28;20102;-77
2023/09/26 00:25:16;;;;;;;3.28;1.70;;;;;;;23.13;48.42;99662.81;5094607;28;20044;-78
2023/09/26 00:27:42;;;;;;;3.42;1.83;;;;;;;23.13;48.51;99657.47;5093798;28;20471;-78
2023/09/26 00:30:08;;;;;;;3.15;1.67;;;;;;;23.15;48.12;99652.94;5094613;28;20038;-77
2023/09/26 00:32:34;;;;;;;3.95;1.50;;;;;;;23.12;48.39;99655.78;5094394;28;20051;-78
2023/09/26 00:35:01;;;;;;;3.60;1.58;;;;;;;23.12;48.42;99661.09;5094239;28;20422;-78
2023/09/26 00:37:26;;;;;;;3.17;1.98;;;;;;;23.09;48.33;99651.53;5093918;28;20029;-78
2023/09/26 00:39:53;;;;;;;3.42;1.80;;;;;;;23.06;48.20;99651.75;5093886;28;20479;-78
2023/09/26 00:42:18;;;;;;;3.35;1.80;;;;;;;23.05;48.29;99656.19;5093927;28;20024;-78
2023/09/26 00:44:44;;;;;;;3.25;1.70;;;;;;;23.05;48.21;99650.88;5092716;28;20031;-77
2023/09/26 00:47:10;;;;;;;3.92;1.90;;;;;;;23.02;48.04;99648.44;5093933;28;20024;-78
2023/09/26 00:49:36;;;;;;;3.42;1.50;;;;;;;23.02;48.39;99650.22;5093526;28;20072;-78
2023/09/26 00:52:04;;;;;;;3.45;1.50;;;;;;;23.01;48.21;99644.03;5093658;28;20028;-80
2023/09/26 00:54:29;;;;;;;3.03;1.67;;;;;;;23.02;48.26;99640.44;5093896;28;20035;-76
2023/09/26 00:56:57;;;;;;;3.70;1.77;;;;;;;23.00;48.25;99644.16;5093769;28;20016;-79
2023/09/26 00:59:23;;;;;;;2.55;1.63;;;;;;;22.98;48.17;99638.06;5093524;28;20417;-78
2023/09/26 01:01:50;;;;;;;2.85;1.55;;;;;;;23.00;48.34;99637.03;5093512;28;20020;-78
2023/09/26 01:04:16;;;;;;;3.20;1.70;;;;;;;22.98;48.23;99636.28;5093123;28;20048;-77
2023/09/26 01:06:43;;;;;;;3.75;1.80;;;;;;;22.96;48.34;99624.03;5093054;28;20023;-79
2023/09/26 01:09:10;;;;;;;3.00;1.70;;;;;;;22.95;48.21;99628.50;5093439;28;20024;-78
2023/09/26 01:11:37;;;;;;;2.88;1.63;;;;;;;22.97;48.45;99629.25;5092161;28;20028;-78
2023/09/26 01:14:03;;;;;;;2.63;1.58;;;;;;;22.97;48.44;99626.59;5093454;28;20028;-78
2023/09/26 01:16:28;;;;;;;3.05;1.70;;;;;;;22.96;48.65;99624.91;5093037;28;20561;-79
2023/09/26 01:18:54;;;;;;;2.70;1.60;;;;;;;22.96;48.56;99630.22;5092102;28;20101;-79
2023/09/26 01:21:20;;;;;;;2.78;1.42;;;;;;;22.97;48.43;99626.59;5093056;28;20356;-78
2023/09/26 01:23:55;;;;;;;4.40;1.67;;;;;;;22.97;48.62;99626.59;5093174;28;20023;-77
2023/09/26 01:26:20;;;;;;;3.05;1.38;;;;;;;22.96;48.56;99626.69;5093055;28;20024;-77
2023/09/26 01:28:46;;;;;;;2.85;1.52;;;;;;;22.95;48.63;99623.16;5092782;28;20028;-78
2023/09/26 01:31:11;;;;;;;2.63;1.40;;;;;;;22.93;48.65;99620.63;5093215;28;20400;-79
2023/09/26 01:33:37;;;;;;;2.92;1.40;;;;;;;22.92;48.54;99623.38;5093115;28;20153;-77
2023/09/26 01:36:02;;;;;;;2.83;1.70;;;;;;;22.93;48.47;99619.75;5092602;28;20130;-77
2023/09/26 01:38:28;;;;;;;2.70;1.63;;;;;;;22.91;48.28;99611.88;5092773;28;20048;-79
2023/09/26 01:40:53;;;;;;;3.17;1.67;;;;;;;22.92;48.19;99612.75;5092763;28;20032;-78
2023/09/26 01:43:19;;;;;;;3.67;1.88;;;;;;;22.91;48.22;99616.38;5092919;28;20484;-77
2023/09/26 01:45:44;;;;;;;3.70;1.80;;;;;;;22.91;48.19;99616.38;5092662;28;20529;-78
2023/09/26 01:48:12;;;;;;;3.58;1.90;;;;;;;22.89;48.37;99618.25;5100202;28;20023;-77
2023/09/26 01:50:38;;;;;;;3.17;1.75;;;;;;;22.87;48.44;99622.84;5112305;28;20076;-78
2023/09/26 01:53:08;;;;;;;2.35;1.48;;;;;;;22.86;48.38;99607.84;5103899;28;20043;-77
2023/09/26 01:55:34;;;;;;;4.20;1.90;;;;;;;22.87;48.31;99607.75;5092468;28;20511;-79
2023/09/26 01:58:00;;;;;;;3.03;1.50;;;;;;;22.87;48.42;99609.53;5091524;28;20024;-78
2023/09/26 02:00:26;;;;;;;3.30;1.75;;;;;;;22.83;48.20;99603.56;5091123;28;20069;-77
2023/09/26 02:02:51;;;;;;;3.58;2.00;;;;;;;22.85;48.31;99603.47;5091436;28;20096;-79
2023/09/26 02:05:21;;;;;;;2.67;1.60;;;;;;;22.83;48.31;99597.38;5092043;28;20039;-78
2023/09/26 02:07:47;;;;;;;2.35;1.40;;;;;;;22.85;47.93;99600.81;5092472;28;20509;-78
2023/09/26 02:10:13;;;;;;;3.22;1.63;;;;;;;22.84;47.98;99604.41;5092709;28;20059;-77
2023/09/26 02:12:45;;;;;;;3.22;1.70;;;;;;;22.84;48.07;99604.41;5092130;28;20384;-78
2023/09/26 02:15:12;;;;;;;3.10;1.67;;;;;;;22.84;47.88;99599.09;5092227;28;20115;-79
2023/09/26 02:17:37;;;;;;;2.92;1.70;;;;;;;22.80;47.74;99588.66;5091754;28;20032;-78
2023/09/26 02:20:08;;;;;;;3.58;1.83;;;;;;;22.82;47.93;99595.69;5092332;28;20028;-77
2023/09/26 02:22:35;;;;;;;3.05;1.60;;;;;;;22.79;48.03;99597.59;5092155;28;20034;-78
2023/09/26 02:25:01;;;;;;;2.67;1.55;;;;;;;22.78;48.14;99595.03;5092363;28;20028;-77
2023/09/26 02:27:26;;;;;;;4.32;1.77;;;;;;;22.77;47.95;99610.13;5092351;28;20081;-77
2023/09/26 02:29:51;;;;;;;3.22;1.60;;;;;;;22.78;47.96;99598.56;5092264;28;20027;-79
2023/09/26 02:32:17;;;;;;;3.80;1.70;;;;;;;22.77;47.72;99601.31;5090646;28;20028;-77
2023/09/26 02:34:42;;;;;;;3.80;1.88;;;;;;;22.73;47.84;99606.00;5092365;28;20028;-79
2023/09/26 02:37:08;;;;;;;3.85;1.90;;;;;;;22.73;47.97;99600.66;5092249;28;20020;-77
2023/09/26 02:39:33;;;;;;;3.92;1.83;;;;;;;22.73;47.85;99607.78;5091908;28;20028;-79
2023/09/26 02:41:58;;;;;;;3.05;1.35;;;;;;;22.73;47.92;99608.66;5092266;28;20392;-77
2023/09/26 02:44:24;;;;;;;2.83;1.45;;;;;;;22.72;47.86;99600.75;5092155;28;20032;-77
2023/09/26 02:46:50;;;;;;;4.00;1.90;;;;;;;22.73;47.88;99608.66;5091695;28;20036;-77
2023/09/26 02:49:15;;;;;;;3.38;1.70;;;;;;;22.68;48.06;99608.09;5092326;28;20018;-78
2023/09/26 02:51:40;;;;;;;2.63;1.40;;;;;;;22.68;48.34;99608.09;5091552;28;20118;-78
2023/09/26 02:54:06;;;;;;;3.45;1.92;;;;;;;22.67;48.16;99606.41;5091794;28;20028;-78
2023/09/26 02:56:31;;;;;;;2.55;1.30;;;;;;;22.66;48.00;99599.34;5091807;28;20024;-78
2023/09/26 02:58:57;;;;;;;3.03;1.75;;;;;;;22.66;47.80;99602.88;5090660;28;20016;-78
2023/09/26 03:01:23;;;;;;;3.58;1.52;;;;;;;22.65;47.84;99600.31;5091749;28;20020;-80
2023/09/26 03:03:49;;;;;;;3.83;1.90;;;;;;;22.63;48.10;99602.22;5094244;28;20032;-78
2023/09/26 03:06:14;;;;;;;3.58;1.70;;;;;;;22.62;48.11;99600.53;5095827;28;20027;-78
2023/09/26 03:08:40;;;;;;;3.10;1.40;;;;;;;22.60;47.82;99597.09;5095859;28;20426;-78
2023/09/26 03:11:05;;;;;;;2.63;1.48;;;;;;;22.61;47.86;99588.19;5095625;28;20020;-77
2023/09/26 03:13:33;;;;;;;2.55;1.38;;;;;;;22.59;48.12;99582.97;5095485;28;20567;-77
2023/09/26 03:16:00;;;;;;;3.15;1.70;;;;;;;22.59;47.96;99579.44;5095096;28;20031;-78
2023/09/26 03:18:28;;;;;;;3.10;1.70;;;;;;;22.57;48.07;99576.03;5095279;28;20121;-77
2023/09/26 03:20:54;;;;;;;2.80;1.45;;;;;;;22.58;47.98;99583.06;5095346;28;20563;-78
2023/09/26 03:23:24;;;;;;;2.50;1.40;;;;;;;22.56;47.94;99585.81;5095491;28;20024;-78
2023/09/26 03:25:50;;;;;;;2.78;1.52;;;;;;;22.55;48.23;99586.78;5095288;28;20032;-77
2023/09/26 03:28:16;;;;;;;3.97;1.90;;;;;;;22.55;47.85;99588.59;5094942;28;20089;-77
2023/09/26 03:30:43;;;;;;;3.45;1.70;;;;;;;22.55;47.95;99583.28;5095057;28;20020;-78
2023/09/26 03:33:10;;;;;;;2.72;1.42;;;;;;;22.55;47.90;99588.59;5095261;28;20048;-77
2023/09/26 03:35:35;;;;;;;3.15;1.48;;;;;;;22.53;48.06;99586.88;5093547;28;20021;-77
2023/09/26 03:38:01;;;;;;;2.70;1.55;;;;;;;22.53;48.05;99589.53;5095122;28;20027;-77
2023/09/26 03:40:26;;;;;;;2.80;1.45;;;;;;;22.52;48.00;99592.31;5094899;28;20020;-78
2023/09/26 03:42:52;;;;;;;3.00;1.42;;;;;;;22.51;48.03;99587.88;5093717;28;20515;-77
2023/09/26 03:45:18;;;;;;;2.65;1.70;;;;;;;22.51;48.05;99583.44;5094339;28;20024;-77
2023/09/26 03:47:43;;;;;;;3.63;1.58;;;;;;;22.50;47.92;99594.16;5094732;28;20024;-77
2023/09/26 03:50:09;;;;;;;3.50;1.60;;;;;;;22.47;48.02;99589.91;5093554;28;20020;-77
2023/09/26 03:52:35;;;;;;;2.75;1.58;;;;;;;22.47;48.14;99587.22;5094905;28;20016;-77
2023/09/26 03:55:00;;;;;;;3.47;1.77;;;;;;;22.45;47.92;99582.97;5094624;28;20433;-78
2023/09/26 03:57:26;;;;;;;3.40;1.73;;;;;;;22.45;48.09;99589.16;5094629;28;20024;-77
2023/09/26 03:59:52;;;;;;;3.03;1.50;;;;;;;22.43;48.12;99591.06;5094177;28;20541;-78
2023/09/26 04:02:18;;;;;;;3.20;1.67;;;;;;;22.43;48.09;99590.19;5094687;28;20059;-78
2023/09/26 04:04:43;;;;;;;2.35;1.30;;;;;;;22.42;48.04;99588.50;5094168;28;20505;-78
2023/09/26 04:07:08;;;;;;;3.13;1.63;;;;;;;22.42;48.09;99586.69;5093072;28;20028;-78
2023/09/26 04:09:34;;;;;;;2.75;1.55;;;;;;;22.40;48.27;99585.94;5094476;28;20024;-77
2023/09/26 04:12:02;;;;;;;3.30;1.45;;;;;;;22.41;48.11;99592.97;5094510;28;20136;-78
2023/09/26 04:14:27;;;;;;;3.40;1.65;;;;;;;22.43;48.00;99591.06;5093546;28;20425;-77
2023/09/26 04:16:53;;;;;;;3.30;1.58;;;;;;;22.41;47.91;99587.63;5094368;28;20076;-78
2023/09/26 04:19:18;;;;;;;2.63;1.30;;;;;;;22.39;47.98;99600.19;5095508;28;20028;-78
2023/09/26 04:21:44;;;;;;;3.70;2.00;;;;;;;22.37;48.07;99594.97;5094057;28;20490;-77
2023/09/26 04:24:09;;;;;;;3.03;1.70;;;;;;;22.39;47.95;99600.19;5094126;28;20103;-78
2023/09/26 04:26:35;;;;;;;2.90;1.67;;;;;;;22.38;48.09;99601.16;5093797;28;20785;-77
2023/09/26 04:29:00;;;;;;;3.03;1.70;;;;;;;22.36;48.32;99597.72;5093802;28;20545;-77
2023/09/26 04:31:26;;;;;;;2.70;1.50;;;;;;;22.35;47.89;99598.69;5092517;28;20046;-78
2023/09/26 04:33:52;;;;;;;2.80;1.60;;;;;;;22.34;47.91;99591.66;5093964;28;20050;-78
2023/09/26 04:36:17;;;;;;;4.38;1.75;;;;;;;22.34;48.10;99591.66;5093763;28;20077;-78
2023/09/26 04:38:43;;;;;;;2.92;1.52;;;;;;;22.34;48.15;99586.34;5093833;28;20411;-77
2023/09/26 04:41:08;;;;;;;3.83;2.00;;;;;;;22.33;47.99;99579.31;5093929;28;20445;-77
2023/09/26 04:43:34;;;;;;;4.35;1.80;;;;;;;22.32;48.17;99582.94;5093674;28;20032;-78
2023/09/26 04:46:00;;;;;;;2.92;1.55;;;;;;;22.33;48.02;99584.63;5092248;28;20042;-77
2023/09/26 04:48:26;;;;;;;2.97;1.73;;;;;;;22.32;48.29;99590.91;5092372;28;20105;-78
2023/09/26 04:50:52;;;;;;;2.97;1.67;;;;;;;22.29;48.08;99583.13;5093691;28;20048;-77
2023/09/26 04:53:17;;;;;;;2.75;1.50;;;;;;;22.30;48.06;99582.16;5093576;28;20031;-77
2023/09/26 04:55:42;;;;;;;2.75;1.50;;;;;;;22.30;48.00;99579.50;5092327;28;20028;-77
2023/09/26 04:58:09;;;;;;;3.08;1.80;;;;;;;22.29;48.14;99583.13;5093149;28;20074;-77
2023/09/26 05:00:36;;;;;;;3.10;1.50;;;;;;;22.25;47.96;99583.34;5093761;28;20035;-78
2023/09/26 05:03:02;;;;;;;3.25;1.60;;;;;;;22.26;48.23;99573.53;5093240;28;20495;-78
2023/09/26 05:05:28;;;;;;;2.85;1.58;;;;;;;22.25;48.02;99580.69;5093161;28;20028;-79
2023/09/26 05:07:54;;;;;;;2.95;1.63;;;;;;;22.25;48.23;99582.47;5073386;28;20036;-77
2023/09/26 05:10:20;;;;;;;3.30;1.50;;;;;;;22.25;48.08;99586.00;5073058;28;20400;-78
2023/09/26 05:12:46;;;;;;;4.47;1.83;;;;;;;22.24;47.99;99586.91;5071480;28;20024;-77
2023/09/26 05:15:13;;;;;;;3.55;2.00;;;;;;;22.24;48.12;99594.91;5078203;28;20176;-77
2023/09/26 05:17:59;;;;;;;2.95;1.77;;;;;;;22.25;48.10;99601.94;5092665;28;20024;-77
2023/09/26 05:20:24;;;;;;;3.55;1.80;;;;;;;22.23;48.17;99598.50;5092667;28;20040;-78
2023/09/26 05:22:50;;;;;;;3.38;1.70;;;;;;;22.23;48.16;99598.50;5093180;28;20024;-78
2023/09/26 05:25:16;;;;;;;3.67;1.83;;;;;;;22.23;48.16;99598.50;5092021;28;20035;-78
2023/09/26 05:27:43;;;;;;;1.73;1.10;;;;;;;22.23;48.18;99605.66;5092344;28;20395;-78
2023/09/26 05:30:11;;;;;;;3.03;1.50;;;;;;;22.21;48.15;99600.41;5093391;28;20504;-77
2023/09/26 05:32:37;;;;;;;2.70;1.60;;;;;;;22.21;48.22;99608.41;5092974;28;20092;-79
2023/09/26 05:35:04;;;;;;;2.60;1.42;;;;;;;22.21;48.35;99604.88;5093383;28;20027;-82
2023/09/26 05:37:30;;;;;;;3.25;1.50;;;;;;;22.20;48.22;99600.50;5092979;28;20058;-78
2023/09/26 05:39:55;;;;;;;5.05;1.52;;;;;;;22.21;48.46;99607.53;5092587;28;20464;-78
2023/09/26 05:42:22;;;;;;;3.17;1.50;;;;;;;22.19;48.27;99605.00;5092143;28;20028;-80
2023/09/26 05:44:47;;;;;;;2.60;1.50;;;;;;;22.18;48.34;99610.41;5084466;28;20514;-78
2023/09/26 05:47:13;;;;;;;2.53;1.50;;;;;;;22.18;48.16;99603.25;5086838;28;20036;-77
2023/09/26 05:49:38;;;;;;;3.85;1.70;;;;;;;22.20;48.28;99604.03;5091958;28;20081;-77
2023/09/26 05:52:04;;;;;;;2.28;1.38;;;;;;;22.19;48.27;99607.66;5091883;28;20057;-78
2023/09/26 05:54:31;;;;;;;3.13;1.42;;;;;;;22.18;48.25;99595.28;5090193;28;20024;-78
2023/09/26 05:56:56;;;;;;;3.92;1.75;;;;;;;22.19;48.30;99607.66;5091065;28;20387;-77
2023/09/26 05:59:22;;;;;;;3.47;1.83;;;;;;;22.18;48.13;99597.94;5091395;28;20028;-78
2023/09/26 06:01:47;;;;;;;3.78;1.60;;;;;;;22.22;48.23;99603.91;5091929;28;20028;-79
2023/09/26 06:04:13;;;;;;;3.00;1.70;;;;;;;22.20;48.05;99606.69;5091379;28;20055;-77
2023/09/26 06:06:38;;;;;;;2.72;1.80;;;;;;;22.17;48.27;99604.22;5091348;28;20032;-78
2023/09/26 06:09:04;;;;;;;3.08;1.70;;;;;;;22.17;48.46;99614.84;5091099;28;20028;-77
2023/09/26 06:11:29;;;;;;;2.85;1.85;;;;;;;22.16;48.21;99607.84;5098431;28;20081;-77
2023/09/26 06:13:54;;;;;;;4.53;1.83;;;;;;;22.15;48.16;99605.25;5106561;28;20057;-78
2023/09/26 06:16:20;;;;;;;3.60;1.73;;;;;;;22.14;48.23;99607.09;5092328;28;20111;-78
2023/09/26 06:18:47;;;;;;;3.47;1.60;;;;;;;22.13;48.16;99605.38;5101848;28;20110;-79
2023/09/26 06:21:14;;;;;;;3.17;1.70;;;;;;;22.12;48.42;99608.97;5112315;28;20032;-78
2023/09/26 06:23:40;;;;;;;3.08;1.60;;;;;;;22.13;48.36;99600.06;5106261;28;20035;-78
2023/09/26 06:26:07;;;;;;;3.20;1.63;;;;;;;22.13;48.39;99608.88;5090282;28;20024;-77
2023/09/26 06:28:33;;;;;;;3.13;1.67;;;;;;;22.12;48.43;99608.97;5112218;28;20039;-77
2023/09/26 06:31:06;;;;;;;4.50;2.03;;;;;;;22.13;48.42;99616.03;5112409;28;20023;-77
2023/09/26 06:33:31;;;;;;;4.30;1.70;;;;;;;22.15;48.47;99619.41;5108484;28;20081;-78
2023/09/26 06:35:57;;;;;;;4.43;1.90;;;;;;;22.16;48.38;99621.13;5092057;28;20107;-78
2023/09/26 06:38:22;;;;;;;3.63;2.15;;;;;;;22.12;48.38;99623.13;5096932;28;20044;-78
2023/09/26 06:40:48;;;;;;;2.90;1.60;;;;;;;22.13;48.54;99626.66;5096246;28;20450;-77
2023/09/26 06:43:13;;;;;;;4.13;1.63;;;;;;;22.12;48.61;99630.22;5096033;28;20027;-78
2023/09/26 06:45:39;;;;;;;2.78;1.65;;;;;;;22.13;48.42;99631.97;5095548;28;20372;-77
2023/09/26 06:48:06;;;;;;;3.25;1.70;;;;;;;22.13;48.63;99645.25;5095672;28;20039;-77
2023/09/26 06:50:32;;;;;;;3.53;1.83;;;;;;;22.14;48.68;99646.94;5096075;28;20103;-78
2023/09/26 06:52:57;;;;;;;3.35;1.70;;;;;;;22.13;48.55;99650.56;5095121;28;20494;-77
2023/09/26 06:55:23;;;;;;;3.15;1.65;;;;;;;22.12;48.55;99651.50;5095981;28;20026;-78
2023/09/26 06:57:48;;;;;;;2.90;1.58;;;;;;;22.12;48.47;99647.03;5095617;28;20062;-77
2023/09/26 07:00:16;;;;;;;3.78;2.08;;;;;;;22.15;48.55;99655.75;5095426;28;20407;-78
2023/09/26 07:02:45;;;;;;;2.95;1.60;;;;;;;22.13;48.45;99654.06;5090869;28;20059;-78
2023/09/26 07:05:11;;;;;;;3.40;1.75;;;;;;;22.12;48.64;99656.81;5094668;28;20047;-78
2023/09/26 07:07:38;;;;;;;3.65;1.88;;;;;;;22.12;48.53;99659.47;5094761;28;20020;-77
2023/09/26 07:10:05;;;;;;;2.50;1.60;;;;;;;22.12;48.58;99651.50;5095051;28;20031;-77
2023/09/26 07:12:30;;;;;;;3.50;1.65;;;;;;;22.12;48.56;99660.31;5095299;28;20016;-78
2023/09/26 07:14:56;;;;;;;2.97;1.50;;;;;;;22.13;48.62;99655.88;5095100;28;20395;-77
2023/09/26 07:17:22;;;;;;;2.67;1.60;;;;;;;22.13;48.72;99663.84;5095310;28;20024;-77
2023/09/26 07:19:49;;;;;;;3.28;1.52;;;;;;;22.13;48.62;99669.16;5095694;28;20108;-77
2023/09/26 07:22:14;;;;;;;3.15;1.80;;;;;;;22.13;48.69;99670.00;5094442;28;20487;-79
2023/09/26 07:24:40;;;;;;;4.07;1.92;;;;;;;22.15;48.75;99671.72;5094345;28;20036;-77
2023/09/26 07:27:07;;;;;;;3.55;1.80;;;;;;;22.15;48.77;99672.56;5094944;28;20038;-77
2023/09/26 07:29:32;;;;;;;3.55;1.70;;;;;;;22.15;48.74;99677.88;5094888;28;20552;-77
2023/09/26 07:31:58;;;;;;;3.65;1.70;;;;;;;22.17;48.81;99670.66;5095169;28;20017;-78
2023/09/26 07:34:23;;;;;;;3.78;1.48;;;;;;;22.14;49.07;99676.19;5094368;28;20019;-78
2023/09/26 07:36:49;;;;;;;3.13;1.60;;;;;;;22.15;49.10;99672.56;5094528;28;20028;-78
2023/09/26 07:39:15;;;;;;;2.95;1.63;;;;;;;22.17;49.06;99675.97;5094604;28;20024;-76
2023/09/26 07:41:40;;;;;;;2.70;1.60;;;;;;;22.18;49.16;99683.00;5094654;28;20107;-76
2023/09/26 07:44:06;;;;;;;6.05;2.08;;;;;;;22.18;49.11;99675.03;5094394;28;20471;-76
2023/09/26 07:46:31;;;;;;;2.88;1.58;;;;;;;22.17;49.05;99683.94;5094972;28;20031;-77
2023/09/26 07:48:57;;;;;;;3.10;1.42;;;;;;;22.19;48.92;99679.41;5092692;28;20567;-78
2023/09/26 07:51:22;;;;;;;2.70;1.58;;;;;;;22.23;48.89;99685.38;5093267;28;20024;-77
2023/09/26 07:53:48;;;;;;;3.17;1.70;;;;;;;22.21;48.97;99677.50;5094603;28;20016;-80
2023/09/26 07:56:13;;;;;;;2.92;1.60;;;;;;;22.22;48.97;99681.84;5094893;28;20017;-78
2023/09/26 07:58:39;;;;;;;3.88;2.10;;;;;;;22.23;49.11;99667.63;5094371;28;20483;-77
2023/09/26 08:01:09;;;;;;;4.30;1.73;;;;;;;22.21;49.22;99680.16;5094515;28;20085;-77
2023/09/26 08:03:37;;;;;;;2.45;1.50;;;;;;;22.25;49.17;99673.72;5094779;28;20052;-81
2023/09/26 08:06:05;;;;;;;3.50;1.95;;;;;;;22.27;49.22;99671.78;5094370;28;20087;-79
2023/09/26 08:08:31;;;;;;;3.55;1.80;;;;;;;22.27;49.17;99671.78;5093444;28;20051;-78
2023/09/26 08:11:09;;;;;;;3.20;1.60;;;;;;;22.29;49.33;99676.16;5094850;28;20016;-78
2023/09/26 08:13:35;;;;;;;2.97;1.63;;;;;;;22.32;49.26;99675.97;5094445;28;20032;-78
2023/09/26 08:16:01;;;;;;;3.63;1.60;;;;;;;22.32;49.17;99679.47;5094585;28;20035;-80
2023/09/26 08:18:27;;;;;;;3.88;1.90;;;;;;;22.36;49.17;99680.13;5103791;28;20024;-78
2023/09/26 08:20:55;;;;;;;3.40;1.63;;;;;;;22.36;49.20;99688.09;5097466;28;20353;-78
2023/09/26 08:23:21;;;;;;;4.70;1.90;;;;;;;22.38;49.38;99688.88;5094096;28;20121;-78
2023/09/26 08:25:47;;;;;;;4.38;2.08;;;;;;;22.38;49.32;99688.88;5092845;28;20059;-78
2023/09/26 08:28:12;;;;;;;5.85;1.85;;;;;;;22.37;49.45;99687.19;5094114;28;20154;-78
2023/09/26 08:30:38;;;;;;;3.30;1.80;;;;;;;22.40;49.49;99692.28;5094304;28;20031;-79
2023/09/26 08:33:03;;;;;;;3.35;1.77;;;;;;;22.41;49.54;99683.34;5093994;28;20028;-78
2023/09/26 08:35:31;;;;;;;4.43;1.98;;;;;;;22.42;49.39;99693.03;5092395;28;20400;-77
2023/09/26 08:37:57;;;;;;;3.15;1.77;;;;;;;22.41;49.43;99686.00;5094035;28;20475;-79
2023/09/26 08:40:26;;;;;;;4.57;2.20;;;;;;;22.43;49.39;99689.44;5094274;28;20024;-79
2023/09/26 08:42:57;;;;;;;3.53;1.80;;;;;;;22.44;49.52;99685.81;5093779;28;20020;-78
2023/09/26 08:45:26;;;;;;;4.18;2.13;;;;;;;22.44;49.43;99693.81;5093801;28;20024;-78
2023/09/26 08:47:54;;;;;;;3.80;1.90;;;;;;;22.45;49.59;99690.19;5092321;28;20028;-79
2023/09/26 08:50:24;;;;;;;3.72;1.77;;;;;;;22.45;49.29;99690.19;5093532;28;20066;-79
2023/09/26 08:52:49;;;;;;;2.10;1.45;;;;;;;22.46;49.46;99691.88;5093051;28;20032;-78
2023/09/26 08:55:15;;;;;;;3.78;2.00;;;;;;;22.47;49.32;99698.91;5092606;28;20080;-78
2023/09/26 08:57:41;;;;;;;3.47;1.77;;;;;;;22.48;49.45;99689.13;5093541;28;20107;-78
2023/09/26 09:00:09;;;;;;;4.00;2.00;;;;;;;22.48;49.40;99697.97;5091980;28;20562;-78
2023/09/26 09:02:34;;;;;;;3.70;1.80;;;;;;;22.50;49.52;99697.88;5093353;28;20076;-77
2023/09/26 09:05:00;;;;;;;4.57;1.98;;;;;;;22.49;49.29;99699.69;5093197;28;20032;-78
2023/09/26 09:07:26;;;;;;;3.63;1.90;;;;;;;22.51;49.47;99700.44;5093783;28;20648;-78
2023/09/26 09:10:07;;;;;;;3.85;1.95;;;;;;;22.56;49.24;99694.00;5092936;28;20094;-78
2023/09/26 09:12:34;;;;;;;3.33;2.00;;;;;;;22.56;49.29;99692.19;5081112;28;20085;-78
2023/09/26 09:15:00;;;;;;;3.95;2.00;;;;;;;22.60;49.19;99699.03;5093635;28;20028;-78
2023/09/26 09:17:25;;;;;;;2.88;2.00;;;;;;;22.62;48.99;99696.28;5091101;28;20032;-79
2023/09/26 09:19:52;;;;;;;4.70;1.90;;;;;;;22.60;49.23;99699.03;5091198;28;20034;-78
2023/09/26 09:22:20;;;;;;;3.30;1.77;;;;;;;22.65;48.97;99698.72;5092077;28;20123;-78
2023/09/26 09:24:56;;;;;;;5.25;2.30;;;;;;;22.65;49.17;99691.59;5093019;28;20054;-79
2023/09/26 09:27:28;;;;;;;;;;;;;;;22.66;48.87;99692.44;5092985;28;20052;-80
2023/09/26 09:30:07;;;;;;;3.65;1.73;;;;;;;22.66;48.94;99711.06;5091165;28;20401;-79
2023/09/26 09:32:33;;;;;;;4.28;2.00;;;;;;;22.67;49.04;99704.81;5091860;28;20032;-80
2023/09/26 09:34:59;;;;;;;3.70;1.70;;;;;;;22.67;49.18;99715.44;5092430;28;20024;-79
2023/09/26 09:37:24;;;;;;;3.03;1.77;;;;;;;22.69;49.12;99713.53;5092515;28;20028;-79
2023/09/26 09:39:50;;;;;;;3.53;2.00;;;;;;;22.70;48.92;99712.56;5092020;28;20030;-79
2023/09/26 09:42:15;;;;;;;3.95;1.95;;;;;;;22.71;49.11;99702.81;5092076;28;20036;-80
2023/09/26 09:44:41;;;;;;;5.43;2.33;;;;;;;22.70;49.06;99704.59;5091845;28;20093;-80
2023/09/26 09:47:10;;;;;;;3.60;1.70;;;;;;;22.71;48.89;99708.97;5091676;28;20039;-79
2023/09/26 09:49:41;;;;;;;3.20;1.67;;;;;;;22.73;49.07;99715.06;5091785;28;20026;-80
2023/09/26 09:52:09;;;;;;;2.92;1.75;;;;;;;22.74;49.11;99711.44;5092316;28;20024;-80
2023/09/26 09:54:39;;;;;;;4.15;1.77;;;;;;;22.75;49.21;99706.94;5092796;28;20073;-81
2023/09/26 09:57:10;;;;;;;3.30;2.00;;;;;;;22.76;49.12;99712.19;5092187;28;20027;-80
2023/09/26 09:59:37;;;;;;;3.13;1.70;;;;;;;22.76;49.08;99704.19;5092669;28;20073;-79
2023/09/26 10:02:06;;;;;;;2.85;1.63;;;;;;;22.78;49.08;99706.78;5092793;28;20053;-80
2023/09/26 10:04:34;;;;;;;3.75;2.00;;;;;;;22.79;49.11;99708.47;5107272;28;20039;-80
2023/09/26 10:07:00;;;;;;;2.90;1.63;;;;;;;22.80;48.86;99711.03;5108277;28;20066;-80
2023/09/26 10:09:27;;;;;;;2.78;1.60;;;;;;;22.80;48.90;99713.69;5098953;28;20047;-79
2023/09/26 10:11:54;;;;;;;3.05;1.60;;;;;;;22.83;48.83;99717.97;5104332;28;20024;-84
2023/09/26 10:14:21;;;;;;;4.10;1.90;;;;;;;22.84;48.84;99710.81;5086271;28;20100;-79
2023/09/26 10:16:47;;;;;;;4.47;1.73;;;;;;;22.84;48.88;99705.50;5085389;28;20016;-79
2023/09/26 10:19:13;;;;;;;3.13;1.52;;;;;;;22.85;48.69;99713.38;5089097;28;20024;-80
2023/09/26 10:21:40;;;;;;;3.95;1.80;;;;;;;22.86;48.88;99708.94;5093727;28;20013;-79
2023/09/26 10:24:09;;;;;;;2.80;1.50;;;;;;;22.87;48.96;99700.00;5083564;28;20030;-79
2023/09/26 10:26:39;;;;;;;2.92;1.63;;;;;;;22.88;48.86;99707.03;5083566;28;20215;-78
2023/09/26 10:29:11;;;;;;;4.03;1.60;;;;;;;22.89;48.94;99704.25;5082084;28;20060;-80
2023/09/26 10:31:41;;;;;;;2.88;1.60;;;;;;;22.91;48.88;99706.84;5078099;28;20373;-77
2023/09/26 10:34:09;;;;;;;2.75;1.50;;;;;;;22.91;48.79;99701.50;5081008;28;20028;-77
2023/09/26 10:36:35;;;;;;;2.92;1.58;;;;;;;22.92;48.75;99703.22;5085348;28;20570;-77
2023/09/26 10:39:05;;;;;;;3.28;1.80;;;;;;;22.93;48.80;99696.94;5084282;28;20115;-79
2023/09/26 10:41:31;;;;;;;3.22;1.65;;;;;;;22.95;48.93;99696.84;5081316;28;20028;-78
2023/09/26 10:43:56;;;;;;;4.13;1.85;;;;;;;22.95;48.82;99697.66;5081824;28;20024;-78
2023/09/26 10:46:22;;;;;;;3.42;1.80;;;;;;;22.96;48.89;99694.09;5079846;28;20024;-78
2023/09/26 10:48:48;;;;;;;3.10;1.73;;;;;;;22.94;48.89;99706.63;5086778;28;20025;-78
2023/09/26 10:51:14;;;;;;;3.47;1.98;;;;;;;22.96;48.78;99696.75;5081859;28;20033;-77
2023/09/26 10:53:41;;;;;;;2.50;1.38;;;;;;;22.98;48.73;99696.63;5078041;28;20028;-80
2023/09/26 10:56:08;;;;;;;4.13;1.60;;;;;;;22.99;48.68;99693.03;5077574;28;20495;-80
2023/09/26 10:58:34;;;;;;;2.83;1.58;;;;;;;22.99;48.60;99691.19;5091999;28;20020;-78
2023/09/26 11:00:59;;;;;;;3.78;1.85;;;;;;;23.00;48.86;99690.25;5090676;28;20016;-81
2023/09/26 11:03:25;;;;;;;3.05;1.70;;;;;;;23.00;48.69;99692.91;5124806;28;20043;-81
2023/09/26 11:05:50;;;;;;;3.47;1.75;;;;;;;23.01;48.91;99694.59;5090339;28;20039;-80
2023/09/26 11:08:17;;;;;;;2.53;1.60;;;;;;;23.03;48.65;99694.50;5092138;28;20537;-80
2023/09/26 11:10:47;;;;;;;3.35;1.50;;;;;;;23.03;48.68;99698.03;5096553;28;20024;-80
2023/09/26 11:13:13;;;;;;;2.53;1.45;;;;;;;23.04;48.74;99691.75;5111386;28;20054;-80
2023/09/26 11:15:38;;;;;;;3.40;1.52;;;;;;;23.05;48.63;99690.78;5095325;28;20048;-80
2023/09/26 11:18:04;;;;;;;2.95;1.58;;;;;;;23.05;48.53;99696.13;5091808;28;20035;-81
2023/09/26 11:20:29;;;;;;;2.22;1.50;;;;;;;23.06;48.70;99695.16;5092270;28;20034;-81
2023/09/26 11:22:55;;;;;;;2.78;1.70;;;;;;;23.07;48.48;99691.53;5090524;28;20023;-80
2023/09/26 11:25:20;;;;;;;2.38;1.50;;;;;;;23.07;48.80;99691.53;5095175;28;20082;-80
2023/09/26 11:27:47;;;;;;;2.80;1.48;;;;;;;23.08;48.75;99695.06;5094307;28;20059;-80
2023/09/26 11:30:17;;;;;;;3.15;1.67;;;;;;;23.08;48.73;99687.06;5095269;28;20012;-80